logo
Search for airport 
image banner adimage banner adimage banner ad
image banner ad

FAAR - Arathusa Safari Lodge

Located in , South Africa

ICAO - , IATA -

Data provided by Airmate  

General information

Coordinates: S24°44'38" E31°31'19"
Elevation is 1299 feet MSL.
Magnetic variation is -19° East
Rated:
View ratings:
[VIEW]
View others Airports in Limpopo

Operational data

Special qualification required
Current time UTC:
Current local time:
Weather at : - ( 0 km )
METAR: UUOK 171928Z AUTO 22004MPS 9999 // ///011/// 19/18 Q1009 RMK QFE739/0985
View NOTAMs / SUP AIP / TFR affecting this airport [VIEW]
Communications frequencies: [VIEW]

Runways:

RWY identifierQFULength (ft)Width (ft)SurfaceLDA (ft)
1580°360949ASPH
33260°360949ASPH
34319°369338ASPH
16139°369338ASPH

Airport contact information

Address: South Africa

Satellite view of FAAR